Time;durP1;ratioP1;P1;durP2;ratioP2;P2;SDS_P1;SDS_P2;PMS_P1;PMS_P2;Temp;Humidity;BMP_temperature;BMP_pressure;BME280_temperature;BME280_humidity;BME280_pressure;Samples;Min_cycle;Max_cycle;Signal;HPM_P1;HPM_P2
2021/03/17 00:00:38;;;;;;;;;;;0.90;99.90;;;;;;5092569;28;19978;-49
2021/03/17 00:03:05;;;;;;;;;;;0.80;99.90;;;;;;5092492;28;20345;-50
2021/03/17 00:05:31;;;;;;;;;;;0.80;99.90;;;;;;5092344;28;19920;-50
2021/03/17 00:07:57;;;;;;;;;;;0.80;99.90;;;;;;5092128;28;19912;-50
2021/03/17 00:10:23;;;;;;;;;;;0.80;99.90;;;;;;5091604;28;19920;-53
2021/03/17 00:12:50;;;;;;;;;;;0.80;99.90;;;;;;5091916;28;19919;-50
2021/03/17 00:15:22;;;;;;;;;;;0.70;99.90;;;;;;5090771;28;19908;-51
2021/03/17 00:17:48;;;;;;;;;;;0.70;99.90;;;;;;5090833;28;19912;-51
2021/03/17 00:20:14;;;;;;;;;;;0.70;99.90;;;;;;5089771;28;19912;-50
2021/03/17 00:22:40;;;;;;;;;;;0.70;99.90;;;;;;5091848;28;19908;-53
2021/03/17 00:25:07;;;;;;;;;;;0.80;99.90;;;;;;5091533;28;19908;-51
2021/03/17 00:27:33;;;;;;;;;;;0.80;99.90;;;;;;5086105;28;19912;-53
2021/03/17 00:29:59;;;;;;;;;;;0.80;99.90;;;;;;5072956;28;20295;-51
2021/03/17 00:32:25;;;;;;;;;;;0.90;99.90;;;;;;5090766;28;20387;-50
2021/03/17 00:34:51;;;;;;;;;;;0.90;99.90;;;;;;5091588;28;19939;-53
2021/03/17 00:37:16;;;;;;;;;;;1.00;99.90;;;;;;5091465;28;19931;-51
2021/03/17 00:39:42;;;;;;;;;;;1.00;99.90;;;;;;5091497;28;19912;-51
2021/03/17 00:42:08;;;;;;;;;;;1.00;99.90;;;;;;5089079;28;20356;-50
2021/03/17 00:44:34;;;;;;;;;;;0.90;99.90;;;;;;5089873;28;19920;-51
2021/03/17 00:47:00;;;;;;;;;;;0.90;99.90;;;;;;5091824;28;20417;-51
2021/03/17 00:49:26;;;;;;;;;;;0.80;99.90;;;;;;5091391;28;20257;-51
2021/03/17 00:51:52;;;;;;;;;;;0.80;99.90;;;;;;5091653;28;20295;-52
2021/03/17 00:54:18;;;;;;;;;;;0.70;99.90;;;;;;5091200;28;20381;-50
2021/03/17 00:56:44;;;;;;;;;;;0.70;99.90;;;;;;5094727;28;19912;-50
2021/03/17 00:59:10;;;;;;;;;;;0.60;99.90;;;;;;5095073;28;20406;-50
2021/03/17 01:01:36;;;;;;;;;;;0.60;99.90;;;;;;5095851;28;19919;-53
2021/03/17 01:04:02;;;;;;;;;;;0.60;99.90;;;;;;5094609;28;19923;-49
2021/03/17 01:06:28;;;;;;;;;;;0.50;99.90;;;;;;5093952;28;19911;-49
2021/03/17 01:08:53;;;;;;;;;;;0.40;99.90;;;;;;5091417;28;20293;-49
2021/03/17 01:11:19;;;;;;;;;;;0.40;99.90;;;;;;5094411;28;19920;-52
2021/03/17 01:13:45;;;;;;;;;;;0.40;99.90;;;;;;5093528;28;19915;-51
2021/03/17 01:16:12;;;;;;;;;;;0.40;99.90;;;;;;5093788;28;19908;-51
2021/03/17 01:18:38;;;;;;;;;;;0.40;99.90;;;;;;5095040;28;19916;-50
2021/03/17 01:21:04;;;;;;;;;;;0.40;99.90;;;;;;5094774;28;19912;-50
2021/03/17 01:23:30;;;;;;;;;;;0.40;99.90;;;;;;5095595;28;19908;-51
2021/03/17 01:25:56;;;;;;;;;;;0.40;99.90;;;;;;5095283;28;20326;-51
2021/03/17 01:28:22;;;;;;;;;;;0.40;99.90;;;;;;5095269;28;20356;-48
2021/03/17 01:30:52;;;;;;;;;;;0.40;99.90;;;;;;5094932;28;19955;-48
2021/03/17 01:33:18;;;;;;;;;;;0.40;99.90;;;;;;5095287;28;20410;-50
2021/03/17 01:35:45;;;;;;;;;;;0.40;99.90;;;;;;5094860;28;19916;-52
2021/03/17 01:38:11;;;;;;;;;;;0.40;99.90;;;;;;5094862;28;19915;-51
2021/03/17 01:40:37;;;;;;;;;;;0.40;99.90;;;;;;5093589;28;19912;-49
2021/03/17 01:43:03;;;;;;;;;;;0.50;99.90;;;;;;5094969;28;19916;-49
2021/03/17 01:45:29;;;;;;;;;;;0.50;99.90;;;;;;5094081;28;20302;-50
2021/03/17 01:47:55;;;;;;;;;;;0.60;99.90;;;;;;5092698;28;19961;-49
2021/03/17 01:50:21;;;;;;;;;;;0.60;99.90;;;;;;5093750;28;19927;-50
2021/03/17 01:52:47;;;;;;;;;;;0.60;99.90;;;;;;5093768;28;19904;-48
2021/03/17 01:55:13;;;;;;;;;;;0.70;99.90;;;;;;5092838;28;19920;-51
2021/03/17 01:57:39;;;;;;;;;;;0.70;99.90;;;;;;5094253;28;19912;-48
2021/03/17 02:00:06;;;;;;;;;;;0.80;99.90;;;;;;5094446;28;20020;-51
2021/03/17 02:02:32;;;;;;;;;;;0.90;99.90;;;;;;5094904;28;19912;-50
2021/03/17 02:04:58;;;;;;;;;;;0.90;99.90;;;;;;5094695;28;20314;-49
2021/03/17 02:07:24;;;;;;;;;;;0.90;99.90;;;;;;5093965;28;19920;-52
2021/03/17 02:09:50;;;;;;;;;;;1.00;99.90;;;;;;5092797;28;19920;-52
2021/03/17 02:12:21;;;;;;;;;;;1.00;99.90;;;;;;5094297;28;20010;-48
2021/03/17 02:15:05;;;;;;;;;;;1.00;99.90;;;;;;5092928;28;19920;-48
2021/03/17 02:17:31;;;;;;;;;;;1.00;99.90;;;;;;5092361;28;19908;-49
2021/03/17 02:20:03;;;;;;;;;;;1.00;99.90;;;;;;5075774;28;19912;-49
2021/03/17 02:22:48;;;;;;;;;;;0.90;99.90;;;;;;5094161;28;19908;-49
2021/03/17 02:25:14;;;;;;;;;;;0.90;99.90;;;;;;5094070;28;20311;-48
2021/03/17 02:28:07;;;;;;;;;;;1.00;99.90;;;;;;5094282;28;19913;-49
2021/03/17 02:30:53;;;;;;;;;;;0.90;99.90;;;;;;5081877;28;19930;-49
2021/03/17 02:33:28;;;;;;;;;;;0.90;99.90;;;;;;5089888;28;19908;-48
2021/03/17 02:36:00;;;;;;;;;;;0.80;99.90;;;;;;5093461;28;19908;-48
2021/03/17 02:38:25;;;;;;;;;;;0.80;99.90;;;;;;5074877;28;19915;-48
2021/03/17 02:40:51;;;;;;;;;;;0.70;99.90;;;;;;5075062;28;19912;-48
2021/03/17 02:43:19;;;;;;;;;;;0.60;99.90;;;;;;5075569;28;19912;-52
2021/03/17 02:45:47;;;;;;;;;;;0.60;99.90;;;;;;5074210;28;19919;-49
2021/03/17 02:48:17;;;;;;;;;;;0.50;99.90;;;;;;5075520;28;19915;-49
2021/03/17 02:50:44;;;;;;;;;;;0.50;99.90;;;;;;5093694;28;19920;-51
2021/03/17 02:53:11;;;;;;;;;;;0.50;99.90;;;;;;5092667;28;20308;-52
2021/03/17 02:55:40;;;;;;;;;;;0.50;99.90;;;;;;5087372;28;20288;-48
2021/03/17 02:58:06;;;;;;;;;;;0.50;99.90;;;;;;5093634;28;20264;-51
2021/03/17 03:00:31;;;;;;;;;;;0.50;99.90;;;;;;5093643;28;19912;-49
2021/03/17 03:02:58;;;;;;;;;;;0.40;99.90;;;;;;5093271;28;19912;-48
2021/03/17 03:05:24;;;;;;;;;;;0.40;99.90;;;;;;5075402;28;19908;-49
2021/03/17 03:07:50;;;;;;;;;;;0.40;99.90;;;;;;5075086;28;19908;-49
2021/03/17 03:10:17;;;;;;;;;;;0.40;99.90;;;;;;5074016;28;19907;-49
2021/03/17 03:12:43;;;;;;;;;;;0.40;99.90;;;;;;5074552;28;19912;-51
2021/03/17 03:15:10;;;;;;;;;;;0.40;99.90;;;;;;5091944;28;19915;-49
2021/03/17 03:17:36;;;;;;;;;;;0.50;99.90;;;;;;5091695;28;19916;-55
2021/03/17 03:20:03;;;;;;;;;;;0.50;99.90;;;;;;5091096;28;19948;-48
2021/03/17 03:22:29;;;;;;;;;;;0.50;99.90;;;;;;5093166;28;20285;-48
2021/03/17 03:24:55;;;;;;;;;;;0.50;99.90;;;;;;5074032;28;19915;-49
2021/03/17 03:27:21;;;;;;;;;;;0.50;99.90;;;;;;5092838;28;20275;-49
2021/03/17 03:29:47;;;;;;;;;;;0.50;99.90;;;;;;5074770;28;19916;-49
2021/03/17 03:32:13;;;;;;;;;;;0.50;99.90;;;;;;5074354;28;19920;-48
2021/03/17 03:34:39;;;;;;;;;;;0.50;99.90;;;;;;5092874;28;20375;-49
2021/03/17 03:37:05;;;;;;;;;;;0.50;99.90;;;;;;5092461;28;19912;-48
2021/03/17 03:39:31;;;;;;;;;;;0.50;99.90;;;;;;5091904;28;19919;-49
2021/03/17 03:41:57;;;;;;;;;;;0.50;99.90;;;;;;5091807;28;20336;-49
2021/03/17 03:44:23;;;;;;;;;;;0.40;99.90;;;;;;5091688;28;19911;-50
2021/03/17 03:46:49;;;;;;;;;;;0.40;99.90;;;;;;5091449;28;20392;-50
2021/03/17 03:49:15;;;;;;;;;;;0.40;99.90;;;;;;5090975;28;20393;-50
2021/03/17 03:51:41;;;;;;;;;;;0.40;99.90;;;;;;5092659;28;20338;-49
2021/03/17 03:54:26;;;;;;;;;;;0.40;99.90;;;;;;5092337;28;19919;-48
2021/03/17 03:56:55;;;;;;;;;;;0.40;99.90;;;;;;5088649;28;19908;-48
2021/03/17 03:59:23;;;;;;;;;;;0.50;99.90;;;;;;5092383;28;19908;-48
2021/03/17 04:01:52;;;;;;;;;;;0.50;99.90;;;;;;5073752;28;19915;-52
2021/03/17 04:04:18;;;;;;;;;;;0.50;99.90;;;;;;5090206;28;20275;-50
2021/03/17 04:06:44;;;;;;;;;;;0.50;99.90;;;;;;5074273;28;19908;-48
2021/03/17 04:09:10;;;;;;;;;;;0.60;99.90;;;;;;5073979;28;19908;-48
2021/03/17 04:11:37;;;;;;;;;;;0.70;99.90;;;;;;5092032;28;19946;-48
2021/03/17 04:14:04;;;;;;;;;;;0.70;99.90;;;;;;5090179;28;19916;-49
2021/03/17 04:16:30;;;;;;;;;;;0.80;99.90;;;;;;5090223;28;19919;-49
2021/03/17 04:18:56;;;;;;;;;;;0.90;99.90;;;;;;5088004;28;19916;-48
2021/03/17 04:21:26;;;;;;;;;;;0.90;99.90;;;;;;5090472;28;19916;-49
2021/03/17 04:23:52;;;;;;;;;;;1.00;99.90;;;;;;5091219;28;19912;-50
2021/03/17 04:26:18;;;;;;;;;;;1.10;99.90;;;;;;5091287;28;19927;-48
2021/03/17 04:28:44;;;;;;;;;;;1.10;99.90;;;;;;5072442;28;20307;-48
2021/03/17 04:31:10;;;;;;;;;;;1.20;99.90;;;;;;5089438;28;19916;-49
2021/03/17 04:33:36;;;;;;;;;;;1.20;99.90;;;;;;5072151;28;19912;-48
2021/03/17 04:36:02;;;;;;;;;;;1.20;99.90;;;;;;5071262;28;19908;-49
2021/03/17 04:38:28;;;;;;;;;;;1.20;99.90;;;;;;5088388;28;19915;-48
2021/03/17 04:40:54;;;;;;;;;;;1.20;99.90;;;;;;5067993;28;19908;-50
2021/03/17 04:43:21;;;;;;;;;;;1.20;99.90;;;;;;5091823;28;19931;-53
2021/03/17 04:45:47;;;;;;;;;;;1.20;99.90;;;;;;5088755;28;19908;-49
2021/03/17 04:48:13;;;;;;;;;;;1.20;99.90;;;;;;5091918;28;19911;-50
2021/03/17 04:50:39;;;;;;;;;;;1.20;99.90;;;;;;5091311;28;20348;-51
2021/03/17 04:53:08;;;;;;;;;;;1.20;99.90;;;;;;5090714;28;19908;-50
2021/03/17 04:55:34;;;;;;;;;;;1.20;99.90;;;;;;5091545;28;19912;-51
2021/03/17 04:57:59;;;;;;;;;;;1.20;99.90;;;;;;5091705;28;19919;-50
2021/03/17 05:00:25;;;;;;;;;;;1.30;99.90;;;;;;5091845;28;19912;-50
2021/03/17 05:02:56;;;;;;;;;;;1.30;99.90;;;;;;5072067;28;20265;-49
2021/03/17 05:05:22;;;;;;;;;;;1.30;99.90;;;;;;5088714;28;19908;-49
2021/03/17 05:07:48;;;;;;;;;;;1.30;99.90;;;;;;5071388;28;19908;-51
2021/03/17 05:10:14;;;;;;;;;;;1.30;99.90;;;;;;5079002;28;20368;-48
2021/03/17 05:12:40;;;;;;;;;;;1.30;99.90;;;;;;5090024;28;19961;-51
2021/03/17 05:15:07;;;;;;;;;;;1.30;99.90;;;;;;5078440;28;19908;-51
2021/03/17 05:17:33;;;;;;;;;;;1.30;99.90;;;;;;5070782;28;19904;-49
2021/03/17 05:19:59;;;;;;;;;;;1.30;99.90;;;;;;5076593;28;20315;-50
2021/03/17 05:22:25;;;;;;;;;;;1.30;99.90;;;;;;5088235;28;19916;-50
2021/03/17 05:24:51;;;;;;;;;;;1.30;99.90;;;;;;5071131;28;20273;-49
2021/03/17 05:27:21;;;;;;;;;;;1.20;99.90;;;;;;5089536;28;19912;-48
2021/03/17 05:29:47;;;;;;;;;;;1.20;99.90;;;;;;5089199;28;19920;-49
2021/03/17 05:32:13;;;;;;;;;;;1.20;99.90;;;;;;5071659;28;19924;-49
2021/03/17 05:34:48;;;;;;;;;;;1.20;99.90;;;;;;5089959;28;19993;-50
2021/03/17 05:37:13;;;;;;;;;;;1.20;99.90;;;;;;5089846;28;19915;-49
2021/03/17 05:39:39;;;;;;;;;;;1.20;99.90;;;;;;5090116;28;19912;-52
2021/03/17 05:42:05;;;;;;;;;;;1.30;99.90;;;;;;5079129;28;20284;-51
2021/03/17 05:44:31;;;;;;;;;;;1.30;99.90;;;;;;5093117;28;19903;-50
2021/03/17 05:46:57;;;;;;;;;;;1.30;99.90;;;;;;5074838;28;19919;-49
2021/03/17 05:49:23;;;;;;;;;;;1.30;99.90;;;;;;5093643;28;19907;-48
2021/03/17 05:51:49;;;;;;;;;;;1.40;99.90;;;;;;5082130;28;19912;-52
2021/03/17 05:54:15;;;;;;;;;;;1.40;99.90;;;;;;5073237;28;20283;-50
2021/03/17 05:56:41;;;;;;;;;;;1.50;99.90;;;;;;5082548;28;19916;-51
2021/03/17 05:59:07;;;;;;;;;;;1.50;99.90;;;;;;5073637;28;19908;-50
2021/03/17 06:01:33;;;;;;;;;;;1.50;99.90;;;;;;5073315;28;19912;-49
2021/03/17 06:03:58;;;;;;;;;;;1.60;99.90;;;;;;5081358;28;19908;-52
2021/03/17 06:06:25;;;;;;;;;;;1.60;99.90;;;;;;5079083;28;20373;-49
2021/03/17 06:08:50;;;;;;;;;;;1.60;99.90;;;;;;5082735;28;20391;-49
2021/03/17 06:11:16;;;;;;;;;;;1.60;99.90;;;;;;5073241;28;19924;-48
2021/03/17 06:13:51;;;;;;;;;;;1.70;99.90;;;;;;5084236;28;19922;-51
2021/03/17 06:16:21;;;;;;;;;;;1.60;99.90;;;;;;5090714;28;20277;-50
2021/03/17 06:18:50;;;;;;;;;;;1.60;99.90;;;;;;5072920;28;19919;-47
2021/03/17 06:21:19;;;;;;;;;;;1.60;99.90;;;;;;5091885;28;19911;-51
2021/03/17 06:23:45;;;;;;;;;;;1.60;99.90;;;;;;5091135;28;19919;-49
2021/03/17 06:26:11;;;;;;;;;;;1.60;99.90;;;;;;5091084;28;20428;-50
2021/03/17 06:28:38;;;;;;;;;;;1.60;99.90;;;;;;5072745;28;20019;-50
2021/03/17 06:31:04;;;;;;;;;;;1.70;99.90;;;;;;5070159;28;19912;-49
2021/03/17 06:33:30;;;;;;;;;;;1.70;99.90;;;;;;5089975;28;19908;-49
2021/03/17 06:36:08;;;;;;;;;;;1.80;99.90;;;;;;5091475;28;19969;-49
2021/03/17 06:38:34;;;;;;;;;;;1.80;99.90;;;;;;5090460;28;19923;-48
2021/03/17 06:41:00;;;;;;;;;;;1.90;99.90;;;;;;5090949;28;19920;-48
2021/03/17 06:43:46;;;;;;;;;;;1.90;99.90;;;;;;5088894;28;20384;-51
2021/03/17 06:46:13;;;;;;;;;;;2.00;99.90;;;;;;5089357;28;20364;-48
2021/03/17 06:48:39;;;;;;;;;;;2.00;99.90;;;;;;5091011;28;19926;-48
2021/03/17 06:51:15;;;;;;;;;;;2.10;99.90;;;;;;5071927;28;19923;-51
2021/03/17 06:53:42;;;;;;;;;;;2.10;99.90;;;;;;5090944;28;19908;-50
2021/03/17 06:56:11;;;;;;;;;;;2.20;99.90;;;;;;5090800;28;19927;-52
2021/03/17 06:58:40;;;;;;;;;;;2.30;99.90;;;;;;5090020;28;19923;-48
2021/03/17 07:01:21;;;;;;;;;;;2.50;99.90;;;;;;5090819;28;20387;-52
2021/03/17 07:03:51;;;;;;;;;;;2.60;99.90;;;;;;5074708;28;19915;-52
2021/03/17 07:06:17;;;;;;;;;;;2.80;99.90;;;;;;5092231;28;19908;-50
2021/03/17 07:08:43;;;;;;;;;;;2.90;99.90;;;;;;5092587;28;20005;-51
2021/03/17 07:11:09;;;;;;;;;;;2.90;99.90;;;;;;5091273;28;19912;-53
2021/03/17 07:13:35;;;;;;;;;;;3.10;99.90;;;;;;5091026;28;19912;-52
2021/03/17 07:16:01;;;;;;;;;;;3.20;99.90;;;;;;5091160;28;20616;-53
2021/03/17 07:18:28;;;;;;;;;;;3.60;99.90;;;;;;5091841;28;19926;-52
2021/03/17 07:20:57;;;;;;;;;;;3.70;99.90;;;;;;5092001;28;19916;-54
2021/03/17 07:23:33;;;;;;;;;;;3.80;99.90;;;;;;5091119;28;19919;-53
2021/03/17 07:26:16;;;;;;;;;;;3.90;99.90;;;;;;5090514;28;19908;-54
2021/03/17 07:28:51;;;;;;;;;;;4.00;99.90;;;;;;5091089;28;20451;-53
2021/03/17 07:31:23;;;;;;;;;;;4.10;99.90;;;;;;5088470;28;19924;-51
2021/03/17 07:33:50;;;;;;;;;;;4.10;99.50;;;;;;5091328;28;19939;-51
2021/03/17 07:36:36;;;;;;;;;;;4.00;99.50;;;;;;5091048;28;20342;-53
2021/03/17 07:39:04;;;;;;;;;;;3.90;99.40;;;;;;5090422;28;20349;-53
2021/03/17 07:41:30;;;;;;;;;;;3.90;98.60;;;;;;5091267;28;19919;-51
2021/03/17 07:43:55;;;;;;;;;;;3.80;98.40;;;;;;5072428;28;19908;-54
2021/03/17 07:46:21;;;;;;;;;;;3.70;99.20;;;;;;5072614;28;20265;-53
2021/03/17 07:48:48;;;;;;;;;;;3.70;99.40;;;;;;5091489;28;19911;-53
2021/03/17 07:51:15;;;;;;;;;;;3.80;99.40;;;;;;5073625;28;19923;-52
2021/03/17 07:53:40;;;;;;;;;;;3.90;99.10;;;;;;5072300;28;19915;-52
2021/03/17 07:56:07;;;;;;;;;;;4.00;98.70;;;;;;5072045;28;20360;-55
2021/03/17 07:58:33;;;;;;;;;;;4.10;98.40;;;;;;5074311;28;20624;-53
2021/03/17 08:00:58;;;;;;;;;;;4.40;98.40;;;;;;5089975;28;19958;-55
2021/03/17 08:03:25;;;;;;;;;;;5.00;98.10;;;;;;5091302;28;19919;-52
2021/03/17 08:05:51;;;;;;;;;;;5.20;96.80;;;;;;5073381;28;19908;-51
2021/03/17 08:08:17;;;;;;;;;;;5.30;95.50;;;;;;5091447;28;20363;-51
2021/03/17 08:10:43;;;;;;;;;;;5.30;94.30;;;;;;5073896;28;19958;-50
2021/03/17 08:13:09;;;;;;;;;;;5.40;94.40;;;;;;5091033;28;19931;-53
2021/03/17 08:15:36;;;;;;;;;;;5.60;94.10;;;;;;5072283;28;20429;-50
2021/03/17 08:18:02;;;;;;;;;;;5.80;94.00;;;;;;5072964;28;19915;-50
2021/03/17 08:20:28;;;;;;;;;;;6.30;93.30;;;;;;5090874;28;19912;-54
2021/03/17 08:22:55;;;;;;;;;;;7.10;91.20;;;;;;5090322;28;20261;-56
2021/03/17 08:25:43;;;;;;;;;;;7.70;87.40;;;;;;5090333;28;19908;-54
2021/03/17 08:28:16;;;;;;;;;;;7.90;84.80;;;;;;5088349;28;19919;-55
2021/03/17 08:30:42;;;;;;;;;;;8.80;83.40;;;;;;5091028;28;19915;-55
2021/03/17 08:33:07;;;;;;;;;;;9.00;81.70;;;;;;5072657;28;19923;-53
2021/03/17 08:35:59;;;;;;;4.38;0.80;;;9.20;75.10;;;;;;5089348;28;20416;-53
2021/03/17 08:38:48;;;;;;;6.47;1.00;;;9.40;70.60;;;;;;5089399;28;20395;-53
2021/03/17 08:41:14;;;;;;;4.88;0.95;;;9.60;72.30;;;;;;5071804;28;20399;-51
2021/03/17 08:43:43;;;;;;;3.72;0.50;;;9.60;73.40;;;;;;5087675;28;20399;-51
2021/03/17 08:46:19;;;;;;;4.43;0.77;;;10.20;71.30;;;;;;5069649;28;20394;-51
2021/03/17 08:49:05;;;;;;;4.87;0.80;;;10.00;68.30;;;;;;5089583;28;20733;-51
2021/03/17 08:51:46;;;;;;;6.63;1.00;;;10.20;67.40;;;;;;5087885;28;20395;-52
2021/03/17 08:54:31;;;;;;;3.70;0.63;;;10.40;66.90;;;;;;5089041;28;20389;-50
2021/03/17 08:56:57;;;;;;;2.17;0.50;;;10.80;62.30;;;;;;5088762;28;20396;-53
2021/03/17 08:59:38;;;;;;;3.38;0.77;;;11.30;60.00;;;;;;5071258;28;20391;-51
2021/03/17 09:02:04;;;;;;;2.72;0.60;;;11.90;58.60;;;;;;5089716;28;20388;-53
2021/03/17 09:04:43;;;;;;;6.28;0.77;;;11.50;57.60;;;;;;5089537;28;20396;-54
2021/03/17 09:07:09;;;;;;;4.70;0.80;;;11.10;55.70;;;;;;5089557;28;20392;-51
2021/03/17 09:09:51;;;;;;;6.75;0.80;;;11.10;57.30;;;;;;5089445;28;20381;-54
2021/03/17 09:12:27;;;;;;;5.15;1.10;;;11.70;54.10;;;;;;5072275;28;20415;-54
2021/03/17 09:15:17;;;;;;;5.22;0.70;;;12.10;55.50;;;;;;5088583;28;20388;-52
2021/03/17 09:17:51;;;;;;;9.73;0.85;;;12.60;52.20;;;;;;5090802;28;20399;-53
2021/03/17 09:20:40;;;;;;;5.40;0.70;;;12.30;53.90;;;;;;5092239;28;20860;-54
2021/03/17 09:23:14;;;;;;;1.52;0.40;;;12.90;49.40;;;;;;5070576;28;20387;-52
2021/03/17 09:25:51;;;;;;;2.95;0.50;;;12.90;43.30;;;;;;5090442;28;20389;-54
2021/03/17 09:28:25;;;;;;;7.20;0.60;;;13.40;44.10;;;;;;5092695;28;20892;-53
2021/03/17 09:30:53;;;;;;;3.00;0.50;;;13.40;43.00;;;;;;5092671;28;20388;-54
2021/03/17 09:33:24;;;;;;;7.07;0.57;;;12.70;41.70;;;;;;5091838;28;20423;-53
2021/03/17 09:36:04;;;;;;;9.13;0.80;;;13.00;42.00;;;;;;5076179;28;20472;-54
2021/03/17 09:38:32;;;;;;;4.22;0.50;;;12.90;39.80;;;;;;5073061;28;20399;-53
2021/03/17 09:41:17;;;;;;;3.50;0.40;;;13.60;39.60;;;;;;5091825;28;20819;-55
2021/03/17 09:43:47;;;;;;;2.70;0.40;;;13.50;37.90;;;;;;5092115;28;20397;-52
2021/03/17 09:46:31;;;;;;;1.30;0.20;;;13.60;37.80;;;;;;5088548;28;20396;-54
2021/03/17 09:49:15;;;;;;;2.85;0.40;;;14.20;37.40;;;;;;5089695;28;20399;-51
2021/03/17 09:51:47;;;;;;;2.67;0.45;;;14.30;35.10;;;;;;5089513;28;20413;-54
2021/03/17 09:54:16;;;;;;;1.67;0.38;;;14.40;34.00;;;;;;5072666;28;20740;-54
2021/03/17 09:56:51;;;;;;;9.75;1.02;;;14.80;33.30;;;;;;5089519;28;20392;-53
2021/03/17 09:59:23;;;;;;;2.05;0.40;;;14.40;33.50;;;;;;5073223;28;20403;-54
2021/03/17 10:02:01;;;;;;;5.93;0.70;;;14.90;30.60;;;;;;5092104;28;20919;-53
2021/03/17 10:04:31;;;;;;;4.72;0.43;;;15.00;32.30;;;;;;5092269;28;20403;-55
2021/03/17 10:06:58;;;;;;;1.30;0.30;;;14.90;31.90;;;;;;5073139;28;20860;-57
2021/03/17 10:09:34;;;;;;;1.65;0.40;;;15.00;29.80;;;;;;5091155;28;20403;-51
2021/03/17 10:12:08;;;;;;;4.20;0.40;;;15.60;27.90;;;;;;5091327;28;20416;-53
2021/03/17 10:14:36;;;;;;;3.97;0.40;;;14.90;29.00;;;;;;5091263;28;21081;-56
2021/03/17 10:17:05;;;;;;;1.00;0.30;;;15.90;29.30;;;;;;5091068;28;20385;-56
2021/03/17 10:19:32;;;;;;;1.67;0.40;;;15.00;29.20;;;;;;5091627;28;20826;-58
2021/03/17 10:21:58;;;;;;;5.22;0.65;;;15.90;28.50;;;;;;5091346;28;20377;-57
2021/03/17 10:24:36;;;;;;;11.00;1.17;;;15.70;26.60;;;;;;5091429;28;20425;-56
2021/03/17 10:27:04;;;;;;;4.47;0.60;;;16.40;26.70;;;;;;5091319;28;20385;-57
2021/03/17 10:29:30;;;;;;;2.75;0.47;;;16.40;27.10;;;;;;5090884;28;20396;-57
2021/03/17 10:31:57;;;;;;;4.60;0.50;;;17.00;27.00;;;;;;5091137;28;20411;-57
2021/03/17 10:34:25;;;;;;;3.83;0.38;;;16.70;26.80;;;;;;5091585;28;20384;-56
2021/03/17 10:36:55;;;;;;;2.67;0.30;;;17.00;26.40;;;;;;5089583;28;20391;-56
2021/03/17 10:39:26;;;;;;;4.82;0.30;;;16.50;27.60;;;;;;5072719;28;20872;-54
2021/03/17 10:41:52;;;;;;;12.47;0.80;;;16.90;24.80;;;;;;5090946;28;20717;-53
2021/03/17 10:44:20;;;;;;;7.07;0.40;;;16.70;25.10;;;;;;5090796;28;20401;-52
2021/03/17 10:46:59;;;;;;;3.05;0.30;;;16.90;26.20;;;;;;5090675;28;20887;-56
2021/03/17 10:49:25;;;;;;;2.85;0.20;;;17.10;26.50;;;;;;5090091;28;20884;-58
2021/03/17 10:51:52;;;;;;;2.40;0.30;;;17.20;24.20;;;;;;5090846;28;20412;-56
2021/03/17 10:54:35;;;;;;;2.72;0.50;;;16.20;25.70;;;;;;5091237;28;20392;-54
2021/03/17 10:57:01;;;;;;;1.75;0.40;;;17.10;24.70;;;;;;5090688;28;20403;-55
2021/03/17 10:59:31;;;;;;;2.05;0.30;;;17.50;25.70;;;;;;5090032;28;20741;-57
2021/03/17 11:02:20;;;;;;;3.10;0.30;;;18.30;27.10;;;;;;5090814;28;20872;-56
2021/03/17 11:05:03;;;;;;;2.83;0.50;;;17.90;26.30;;;;;;5090953;28;20387;-54
2021/03/17 11:07:53;;;;;;;3.17;0.30;;;17.70;27.00;;;;;;5088710;28;20686;-56
2021/03/17 11:10:42;;;;;;;1.15;0.30;;;18.10;25.60;;;;;;5089382;28;20376;-56
2021/03/17 11:13:17;;;;;;;2.28;0.40;;;19.40;25.00;;;;;;5090252;28;20403;-55
2021/03/17 11:15:54;;;;;;;5.93;0.47;;;18.80;23.60;;;;;;5070616;28;20884;-55
2021/03/17 11:18:30;;;;;;;3.72;0.50;;;17.90;25.20;;;;;;5087646;28;20407;-57
2021/03/17 11:21:07;;;;;;;2.47;0.30;;;18.30;25.00;;;;;;5070977;28;20380;-55
2021/03/17 11:23:40;;;;;;;8.60;0.87;;;18.10;25.50;;;;;;5089665;28;20772;-55
2021/03/17 11:26:08;;;;;;;2.67;0.30;;;18.60;25.80;;;;;;5070741;28;20392;-54
2021/03/17 11:28:38;;;;;;;3.70;0.57;;;18.70;24.60;;;;;;5090593;28;20400;-56
2021/03/17 11:31:06;;;;;;;3.78;0.50;;;19.00;25.00;;;;;;5090601;28;20392;-57
2021/03/17 11:33:32;;;;;;;3.50;0.50;;;18.70;25.20;;;;;;5072376;28;20879;-57
2021/03/17 11:35:59;;;;;;;1.30;0.20;;;18.70;24.30;;;;;;5090645;28;20380;-57
2021/03/17 11:38:26;;;;;;;1.40;0.28;;;18.90;24.20;;;;;;5071147;28;20401;-55
2021/03/17 11:40:52;;;;;;;2.22;0.32;;;19.10;23.00;;;;;;5090567;28;20384;-57
2021/03/17 11:43:21;;;;;;;1.67;0.28;;;19.20;23.30;;;;;;5090339;28;20741;-57
2021/03/17 11:45:48;;;;;;;6.47;0.40;;;18.70;23.20;;;;;;5071889;28;20384;-56
2021/03/17 11:48:15;;;;;;;3.73;0.37;;;18.40;23.80;;;;;;5068166;28;20760;-57
2021/03/17 11:50:42;;;;;;;5.95;0.52;;;18.30;22.90;;;;;;5087396;28;20388;-56
2021/03/17 11:53:09;;;;;;;4.07;0.20;;;17.60;25.90;;;;;;5089405;28;20404;-56
2021/03/17 11:55:35;;;;;;;2.88;0.40;;;18.60;24.10;;;;;;5070254;28;20383;-56
2021/03/17 11:58:01;;;;;;;2.72;0.30;;;18.70;25.20;;;;;;5090862;28;20396;-53
2021/03/17 12:00:28;;;;;;;4.28;0.40;;;20.20;24.60;;;;;;5089721;28;20377;-54
2021/03/17 12:02:54;;;;;;;1.80;0.43;;;20.10;22.30;;;;;;5088870;28;20407;-52
2021/03/17 12:05:20;;;;;;;6.55;0.30;;;20.60;22.20;;;;;;5090331;28;20745;-55
2021/03/17 12:07:47;;;;;;;6.20;0.40;;;20.50;21.00;;;;;;5090160;28;20396;-51
2021/03/17 12:10:13;;;;;;;1.70;0.40;;;20.20;21.10;;;;;;5089683;28;20385;-51
2021/03/17 12:12:40;;;;;;;1.83;0.30;;;19.80;19.80;;;;;;5089690;28;20407;-55
2021/03/17 12:15:07;;;;;;;6.22;0.40;;;18.50;21.30;;;;;;5088418;28;20397;-54
2021/03/17 12:17:34;;;;;;;3.25;0.22;;;17.00;22.70;;;;;;5089679;28;20388;-52
2021/03/17 12:20:00;;;;;;;0.90;0.30;;;16.70;23.30;;;;;;5090077;28;20380;-51
2021/03/17 12:22:26;;;;;;;3.45;0.40;;;16.60;24.90;;;;;;5070323;28;20391;-52
2021/03/17 12:24:52;;;;;;;5.65;0.40;;;16.10;23.60;;;;;;5090378;28;20383;-50
2021/03/17 12:27:19;;;;;;;5.63;0.50;;;17.40;23.30;;;;;;5090175;28;20392;-52
2021/03/17 12:29:45;;;;;;;2.28;0.30;;;17.90;25.00;;;;;;5090411;28;20372;-55
2021/03/17 12:32:11;;;;;;;2.13;0.43;;;18.30;24.40;;;;;;5089371;28;20890;-56
2021/03/17 12:34:37;;;;;;;2.42;0.40;;;18.30;22.30;;;;;;5088834;28;20397;-53
2021/03/17 12:37:03;;;;;;;1.10;0.32;;;17.20;23.20;;;;;;5089711;28;20395;-53
2021/03/17 12:39:29;;;;;;;0.82;0.20;;;16.00;24.40;;;;;;5090142;28;20445;-51
2021/03/17 12:41:56;;;;;;;2.22;0.30;;;16.40;24.40;;;;;;5090273;28;20377;-56
2021/03/17 12:44:22;;;;;;;2.10;0.30;;;16.30;23.00;;;;;;5070893;28;20389;-52
2021/03/17 12:46:48;;;;;;;3.40;0.40;;;16.30;23.80;;;;;;5089790;28;20376;-52
2021/03/17 12:49:14;;;;;;;2.30;0.20;;;16.50;23.30;;;;;;5089419;28;20875;-50
2021/03/17 12:51:40;;;;;;;0.88;0.20;;;16.80;24.10;;;;;;5091507;28;20841;-50
2021/03/17 12:54:07;;;;;;;1.27;0.30;;;16.90;21.60;;;;;;5075623;28;20760;-53
2021/03/17 12:56:33;;;;;;;3.58;0.50;;;15.80;22.20;;;;;;5093974;28;20377;-52
2021/03/17 12:59:01;;;;;;;3.10;0.43;;;16.60;23.90;;;;;;5093766;28;20399;-50
2021/03/17 13:01:27;;;;;;;2.50;0.30;;;17.00;23.40;;;;;;5073681;28;20389;-55
2021/03/17 13:03:53;;;;;;;5.25;0.60;;;16.70;22.10;;;;;;5092432;28;20384;-55
2021/03/17 13:06:20;;;;;;;4.27;0.40;;;16.70;22.30;;;;;;5092758;28;20372;-55
2021/03/17 13:08:46;;;;;;;1.83;0.40;;;17.50;22.90;;;;;;5094281;28;20379;-55
2021/03/17 13:11:12;;;;;;;2.20;0.30;;;17.60;23.90;;;;;;5093821;28;20883;-55
2021/03/17 13:13:38;;;;;;;2.17;0.30;;;17.80;21.80;;;;;;5094350;28;20400;-53
2021/03/17 13:16:05;;;;;;;2.90;0.30;;;17.60;23.10;;;;;;5093163;28;20383;-55
2021/03/17 13:18:31;;;;;;;7.28;0.60;;;17.20;23.00;;;;;;5090903;28;20387;-54
2021/03/17 13:20:57;;;;;;;3.17;0.50;;;17.10;23.30;;;;;;5091289;28;20388;-56
2021/03/17 13:23:23;;;;;;;4.53;0.50;;;16.70;22.60;;;;;;5092734;28;20391;-51
2021/03/17 13:25:49;;;;;;;6.60;0.47;;;17.00;22.50;;;;;;5092261;28;20899;-54
2021/03/17 13:28:16;;;;;;;3.83;0.60;;;16.60;23.50;;;;;;5092371;28;20764;-53
2021/03/17 13:30:47;;;;;;;3.03;0.35;;;16.30;23.00;;;;;;5093093;28;20391;-51
2021/03/17 13:33:14;;;;;;;2.45;0.40;;;15.70;24.00;;;;;;5091955;28;20427;-53
2021/03/17 13:35:41;;;;;;;1.80;0.30;;;14.80;24.80;;;;;;5092444;28;20384;-53
2021/03/17 13:38:07;;;;;;;1.65;0.50;;;14.40;25.50;;;;;;5092756;28;20388;-55
2021/03/17 13:40:34;;;;;;;1.33;0.20;;;14.20;25.20;;;;;;5091780;28;20380;-54
2021/03/17 13:43:00;;;;;;;2.45;0.40;;;13.60;26.50;;;;;;5092641;28;20385;-54
2021/03/17 13:45:26;;;;;;;2.15;0.30;;;13.00;27.90;;;;;;5091302;28;20404;-55
2021/03/17 13:47:52;;;;;;;5.65;0.30;;;12.70;27.00;;;;;;5092219;28;20389;-54
2021/03/17 13:50:19;;;;;;;4.45;0.30;;;12.00;26.20;;;;;;5042678;28;20411;-51
2021/03/17 13:52:45;;;;;;;2.80;0.38;;;11.70;27.70;;;;;;5092658;28;20930;-52
2021/03/17 13:55:12;;;;;;;1.80;0.30;;;11.60;27.70;;;;;;5093358;28;20876;-54